createdAt,value
2023-02-09T00:03:13.771Z,-3.40
2023-02-09T00:09:16.069Z,-3.46
2023-02-09T00:15:17.989Z,-3.51
2023-02-09T00:21:19.878Z,-3.52
2023-02-09T00:27:23.903Z,-3.67
2023-02-09T00:33:25.968Z,-3.65
2023-02-09T00:39:27.886Z,-3.72
2023-02-09T00:45:30.670Z,-3.70
2023-02-09T00:51:32.782Z,-3.77
2023-02-09T00:57:36.025Z,-3.83
2023-02-09T01:03:37.925Z,-3.63
2023-02-09T01:09:39.868Z,-3.84
2023-02-09T01:15:41.814Z,-3.98
2023-02-09T01:21:46.518Z,-3.98
2023-02-09T01:27:48.475Z,-3.97
2023-02-09T01:33:51.979Z,-3.78
2023-02-09T01:39:53.892Z,-4.04
2023-02-09T01:45:55.899Z,-4.16
2023-02-09T01:52:06.699Z,-4.09
2023-02-09T01:58:16.888Z,-3.99
2023-02-09T02:04:20.646Z,-3.91
2023-02-09T02:10:22.698Z,-3.88
2023-02-09T02:16:47.549Z,-3.93
2023-02-09T02:23:19.601Z,-4.01
2023-02-09T02:30:02.841Z,-3.94
2023-02-09T02:37:00.358Z,-4.07
2023-02-09T02:43:39.152Z,-4.17
2023-02-09T02:49:56.878Z,-4.01
2023-02-09T02:56:07.524Z,-4.04
2023-02-09T03:02:17.479Z,-4.15
2023-02-09T03:08:19.395Z,-4.20
2023-02-09T03:15:03.286Z,-4.40
2023-02-09T03:21:14.232Z,-4.35
2023-02-09T03:27:28.852Z,-4.45
2023-02-09T03:33:33.316Z,-4.48
2023-02-09T03:39:35.450Z,-4.19
2023-02-09T03:45:38.260Z,-4.14
2023-02-09T03:51:40.885Z,-4.21
2023-02-09T03:57:42.824Z,-4.36
2023-02-09T04:03:44.695Z,-4.42
2023-02-09T04:09:46.595Z,-4.31
2023-02-09T04:15:48.524Z,-4.20
2023-02-09T04:21:50.432Z,-4.17
2023-02-09T04:27:52.370Z,-4.27
2023-02-09T04:33:54.337Z,-4.23
2023-02-09T04:39:56.268Z,-4.30
2023-02-09T04:45:58.993Z,-4.27
2023-02-09T04:52:00.893Z,-4.46
2023-02-09T04:58:21.047Z,-4.50
2023-02-09T05:04:23.082Z,-4.65
2023-02-09T05:10:25.096Z,-4.65
2023-02-09T05:16:27.091Z,-4.56
2023-02-09T05:22:29.005Z,-4.47
2023-02-09T05:28:31.156Z,-4.27
2023-02-09T05:34:33.113Z,-4.51
2023-02-09T05:40:35.006Z,-4.50
2023-02-09T05:46:36.940Z,-4.64
2023-02-09T05:52:38.838Z,-4.71
2023-02-09T05:58:40.753Z,-4.64
2023-02-09T06:04:43.362Z,-4.76
2023-02-09T06:10:45.481Z,-4.79
2023-02-09T06:16:47.585Z,-5.01
2023-02-09T06:22:49.468Z,-5.02
2023-02-09T06:28:51.338Z,-4.90
2023-02-09T06:34:53.281Z,-4.92
2023-02-09T06:40:55.188Z,-4.81
2023-02-09T06:46:57.064Z,-4.80
2023-02-09T06:52:59.249Z,-4.79
2023-02-09T06:59:01.147Z,-4.96
2023-02-09T07:05:03.185Z,-4.89
2023-02-09T07:11:08.580Z,-4.69
2023-02-09T07:17:10.737Z,-4.54
2023-02-09T07:23:12.614Z,-4.55
2023-02-09T07:29:14.512Z,-4.28
2023-02-09T07:35:16.607Z,-4.27
2023-02-09T07:41:25.205Z,-4.22
2023-02-09T07:47:27.084Z,-3.98
2023-02-09T07:53:29.923Z,-3.93
2023-02-09T07:59:32.018Z,-3.83
2023-02-09T08:05:55.717Z,-3.74
2023-02-09T08:12:04.970Z,-3.62
2023-02-09T08:18:15.733Z,-3.39
2023-02-09T08:24:20.676Z,-3.10
2023-02-09T08:30:22.671Z,-2.83
2023-02-09T08:36:24.583Z,-2.70
2023-02-09T08:42:26.575Z,-2.63
2023-02-09T08:48:32.952Z,-2.51
2023-02-09T08:54:35.972Z,-2.27
2023-02-09T09:00:37.922Z,-2.27
2023-02-09T09:06:39.856Z,-2.07
2023-02-09T09:12:41.764Z,-1.70
2023-02-09T09:18:44.587Z,-1.15
2023-02-09T09:24:46.526Z,-0.87
2023-02-09T09:30:48.457Z,-0.68
2023-02-09T09:36:50.411Z,-0.58
2023-02-09T09:42:57.400Z,-0.20
2023-02-09T09:49:00.003Z,0.18
2023-02-09T09:55:05.873Z,0.56
2023-02-09T10:01:14.213Z,1.66
2023-02-09T10:07:23.594Z,1.91
2023-02-09T10:13:44.675Z,4.20
2023-02-09T10:20:07.465Z,3.98
2023-02-09T10:26:09.271Z,3.72
2023-02-09T10:32:22.104Z,3.75
2023-02-09T10:38:28.103Z,3.65
2023-02-09T10:44:36.128Z,3.53
2023-02-09T10:51:01.108Z,3.79
2023-02-09T10:57:19.244Z,3.77
2023-02-09T11:03:27.230Z,3.62
2023-02-09T11:09:55.623Z,3.51
2023-02-09T11:16:55.969Z,3.47
2023-02-09T11:23:58.436Z,3.17
2023-02-09T11:30:18.287Z,3.00
2023-02-09T11:36:37.989Z,2.77
2023-02-09T11:43:10.240Z,3.30
2023-02-09T11:49:19.496Z,4.27
2023-02-09T11:56:14.398Z,4.57
2023-02-09T12:02:38.172Z,4.53
2023-02-09T12:09:01.617Z,4.65
2023-02-09T12:15:29.543Z,5.43
2023-02-09T12:21:38.231Z,5.67
2023-02-09T12:28:03.242Z,5.87
2023-02-09T12:34:20.322Z,6.10
2023-02-09T12:40:23.852Z,6.24
2023-02-09T12:46:48.396Z,6.95
2023-02-09T12:53:24.471Z,7.16
2023-02-09T12:59:26.664Z,8.05
2023-02-09T13:05:37.859Z,7.85
2023-02-09T13:12:06.078Z,8.09
2023-02-09T13:18:18.187Z,7.49
2023-02-09T13:24:37.784Z,6.51
2023-02-09T13:30:39.723Z,5.98
2023-02-09T13:36:54.822Z,5.46
2023-02-09T13:43:33.811Z,5.48
2023-02-09T13:49:35.754Z,6.07
2023-02-09T13:55:45.352Z,6.53
2023-02-09T14:01:49.148Z,6.17
2023-02-09T14:07:52.262Z,6.23
2023-02-09T14:14:20.262Z,6.52
2023-02-09T14:20:25.470Z,6.47
2023-02-09T14:26:41.997Z,6.32
2023-02-09T14:32:45.522Z,6.46
2023-02-09T14:38:49.399Z,6.34
2023-02-09T14:45:22.506Z,6.11
2023-02-09T14:51:27.477Z,5.96
2023-02-09T14:57:32.365Z,5.77
2023-02-09T15:03:34.250Z,5.33
2023-02-09T15:09:37.760Z,5.09
2023-02-09T15:15:40.056Z,4.96
2023-02-09T15:21:41.997Z,4.75
2023-02-09T15:28:00.888Z,4.38
2023-02-09T15:34:07.725Z,3.67
2023-02-09T15:40:42.907Z,3.17
2023-02-09T15:47:04.799Z,2.79
2023-02-09T15:53:11.891Z,2.51
2023-02-09T15:59:21.200Z,2.17
2023-02-09T16:05:26.209Z,1.70
2023-02-09T16:11:32.955Z,1.54
2023-02-09T16:17:34.902Z,1.59
2023-02-09T16:23:37.164Z,1.47
2023-02-09T16:29:39.077Z,1.34
2023-02-09T16:35:41.058Z,1.26
2023-02-09T16:41:50.437Z,1.30
2023-02-09T16:47:59.114Z,1.11
2023-02-09T16:54:01.323Z,1.00
2023-02-09T17:00:04.591Z,0.86
2023-02-09T17:06:16.035Z,0.85
2023-02-09T17:12:17.939Z,0.58
2023-02-09T17:18:25.946Z,0.19
2023-02-09T17:24:27.882Z,0.17
2023-02-09T17:30:33.482Z,0.10
2023-02-09T17:36:35.748Z,-0.19
2023-02-09T17:42:38.057Z,-0.19
2023-02-09T17:48:40.071Z,-0.37
2023-02-09T17:54:42.002Z,-0.40
2023-02-09T18:00:45.442Z,-0.30
2023-02-09T18:06:47.638Z,-0.24
2023-02-09T18:12:50.113Z,-0.27
2023-02-09T18:18:52.006Z,-0.21
2023-02-09T18:24:59.625Z,-0.11
2023-02-09T18:31:01.772Z,-0.12
2023-02-09T18:37:04.109Z,-0.19
2023-02-09T18:43:07.583Z,-0.40
2023-02-09T18:49:12.315Z,-0.56
2023-02-09T18:55:14.346Z,-0.58
2023-02-09T19:01:18.923Z,-0.61
2023-02-09T19:07:21.132Z,-0.87
2023-02-09T19:13:23.097Z,-1.05
2023-02-09T19:19:25.078Z,-1.24
2023-02-09T19:25:28.709Z,-1.34
2023-02-09T19:31:30.764Z,-1.20
2023-02-09T19:37:33.135Z,-1.26
2023-02-09T19:43:35.078Z,-1.20
2023-02-09T19:49:38.914Z,-1.30
2023-02-09T19:55:40.821Z,-1.34
2023-02-09T20:01:43.463Z,-1.40
2023-02-09T20:07:45.447Z,-1.23
2023-02-09T20:13:51.611Z,-1.39
2023-02-09T20:19:54.413Z,-1.29
2023-02-09T20:25:56.693Z,-0.93
2023-02-09T20:31:58.610Z,-0.83
2023-02-09T20:38:00.620Z,-0.70
2023-02-09T20:44:21.402Z,-0.57
2023-02-09T20:50:23.419Z,-0.35
2023-02-09T20:56:26.703Z,-0.09
2023-02-09T21:02:28.630Z,0.22
2023-02-09T21:08:30.602Z,0.33
2023-02-09T21:14:41.615Z,0.46
2023-02-09T21:20:45.849Z,0.56
2023-02-09T21:26:47.780Z,0.75
2023-02-09T21:32:49.710Z,0.81
2023-02-09T21:38:51.651Z,0.97
2023-02-09T21:44:55.061Z,1.07
2023-02-09T21:50:57.311Z,1.18
2023-02-09T21:57:00.513Z,1.25
2023-02-09T22:03:02.419Z,1.43
2023-02-09T22:09:06.248Z,1.29
2023-02-09T22:15:09.024Z,1.31
2023-02-09T22:21:11.327Z,1.33
2023-02-09T22:27:13.216Z,1.33
2023-02-09T22:33:15.105Z,1.39
2023-02-09T22:39:17.038Z,1.44
2023-02-09T22:45:19.019Z,1.52
2023-02-09T22:51:21.894Z,1.51
2023-02-09T22:57:25.542Z,1.60
2023-02-09T23:03:27.444Z,1.60
2023-02-09T23:09:29.583Z,1.59
2023-02-09T23:15:31.510Z,1.57
2023-02-09T23:21:37.767Z,1.60
2023-02-09T23:27:39.688Z,1.60
2023-02-09T23:33:42.156Z,1.65
2023-02-09T23:39:44.155Z,1.66
2023-02-09T23:45:46.021Z,1.71
2023-02-09T23:51:47.927Z,1.71
2023-02-09T23:57:49.971Z,1.70
